Time;durP1;ratioP1;P1;durP2;ratioP2;P2;SDS_P1;SDS_P2;PMS_P1;PMS_P2;Temp;Humidity;BMP_temperature;BMP_pressure;BME280_temperature;BME280_humidity;BME280_pressure;Samples;Min_cycle;Max_cycle;Signal;HPM_P1;HPM_P2
2021/09/14 00:00:43;;;;;;;42.83;24.60;;;;;;;12.55;100.00;100491.94;1749874;82;21379;-52
2021/09/14 00:03:10;;;;;;;46.80;23.73;;;;;;;12.49;100.00;100489.05;1722163;82;21481;-52
2021/09/14 00:05:36;;;;;;;62.38;25.15;;;;;;;12.44;100.00;100489.62;1749926;82;20960;-52
2021/09/14 00:08:03;;;;;;;49.45;25.05;;;;;;;12.43;100.00;100496.58;1749780;82;20960;-52
2021/09/14 00:10:32;;;;;;;44.00;22.40;;;;;;;12.39;100.00;100496.25;1749472;80;20917;-53
2021/09/14 00:12:58;;;;;;;45.05;23.87;;;;;;;12.35;100.00;100494.16;1749588;81;20837;-52
2021/09/14 00:15:24;;;;;;;42.85;23.35;;;;;;;12.32;100.00;100504.63;1749672;82;20995;-53
2021/09/14 00:17:52;;;;;;;48.78;22.10;;;;;;;12.29;100.00;100496.05;1749798;82;21007;-53
2021/09/14 00:20:20;;;;;;;50.45;22.62;;;;;;;12.27;100.00;100500.44;1749698;82;21279;-52
2021/09/14 00:22:47;;;;;;;59.38;22.80;;;;;;;12.23;100.00;100493.16;1749839;82;21769;-52
2021/09/14 00:25:14;;;;;;;49.45;22.73;;;;;;;12.21;100.00;100491.92;1749560;82;20951;-52
2021/09/14 00:27:40;;;;;;;99.77;26.82;;;;;;;12.21;100.00;100493.22;1749792;82;20905;-52
2021/09/14 00:30:11;;;;;;;71.20;25.68;;;;;;;12.19;100.00;100491.53;1749659;81;20900;-52
2021/09/14 00:32:39;;;;;;;112.45;29.57;;;;;;;12.19;100.00;100492.40;1749797;82;20916;-52
2021/09/14 00:35:07;;;;;;;93.58;26.40;;;;;;;12.19;100.00;100492.40;1749689;82;21118;-52
2021/09/14 00:37:33;;;;;;;97.70;25.55;;;;;;;12.19;100.00;100490.23;1749792;82;20983;-52
2021/09/14 00:40:00;;;;;;;83.97;26.85;;;;;;;12.17;100.00;100484.23;1749585;82;21510;-52
2021/09/14 00:42:26;;;;;;;68.35;23.77;;;;;;;12.16;100.00;100487.29;1749511;80;21723;-52
2021/09/14 00:44:52;;;;;;;61.45;23.55;;;;;;;12.13;100.00;100492.56;1749623;82;22091;-52
2021/09/14 00:47:19;;;;;;;47.05;23.38;;;;;;;12.09;100.00;100488.77;1749596;82;21948;-52
2021/09/14 00:49:45;;;;;;;41.92;23.20;;;;;;;12.03;100.00;100488.46;1749458;81;21573;-52
2021/09/14 00:52:12;;;;;;;56.60;22.55;;;;;;;11.97;100.00;100492.47;1749461;81;20885;-52
2021/09/14 00:54:39;;;;;;;59.08;22.90;;;;;;;11.89;100.00;100493.52;1749667;82;20897;-52
2021/09/14 00:57:07;;;;;;;47.80;21.90;;;;;;;11.83;100.00;100494.09;1749597;82;20900;-52
2021/09/14 00:59:34;;;;;;;46.98;24.35;;;;;;;11.77;100.00;100493.36;1749756;82;21123;-52
2021/09/14 01:02:00;;;;;;;52.98;25.48;;;;;;;11.73;100.00;100498.17;1746707;81;20940;-52
2021/09/14 01:04:27;;;;;;;50.58;23.95;;;;;;;11.69;100.00;100498.30;1749719;82;20955;-53
2021/09/14 01:06:54;;;;;;;53.55;24.23;;;;;;;11.67;100.00;100497.48;1749802;82;20984;-52
2021/09/14 01:09:23;;;;;;;47.75;22.35;;;;;;;11.64;100.00;100497.09;1749739;82;20956;-52
2021/09/14 01:11:52;;;;;;;50.05;24.65;;;;;;;11.62;100.00;100498.88;1749526;82;21063;-52
2021/09/14 01:14:19;;;;;;;40.78;22.20;;;;;;;11.59;100.00;100493.30;1749750;82;21392;-52
2021/09/14 01:16:46;;;;;;;47.70;23.77;;;;;;;11.59;100.00;100496.35;1749856;82;21592;-52
2021/09/14 01:19:14;;;;;;;56.63;23.10;;;;;;;11.57;100.00;100505.91;1749827;82;21447;-52
2021/09/14 01:21:40;;;;;;;34.95;21.70;;;;;;;11.58;100.00;100506.31;1749599;82;20980;-52
2021/09/14 01:24:08;;;;;;;44.70;22.67;;;;;;;11.61;100.00;100501.05;1749676;82;21324;-52
2021/09/14 01:26:37;;;;;;;42.95;23.00;;;;;;;11.62;100.00;100506.65;1749851;81;22660;-52
2021/09/14 01:30:10;;;;;;;44.90;22.02;;;;;;;11.60;100.00;100505.37;1749851;82;21636;-52
2021/09/14 01:31:40;;;;;;;46.40;20.02;;;;;;;11.59;100.00;100506.72;1749276;81;20968;-52
2021/09/14 01:34:08;;;;;;;43.17;21.23;;;;;;;11.59;100.00;100504.13;1749875;82;21015;-52
2021/09/14 01:36:36;;;;;;;38.90;22.07;;;;;;;11.60;100.00;100506.67;1721770;82;21907;-52
2021/09/14 01:39:04;;;;;;;40.52;19.87;;;;;;;11.58;100.00;100512.80;1749673;82;20933;-52
2021/09/14 01:41:34;;;;;;;45.10;21.07;;;;;;;11.55;100.00;100514.16;1749682;82;20983;-52
2021/09/14 01:44:04;;;;;;;38.20;20.85;;;;;;;11.55;100.00;100511.56;1749739;81;20920;-52
2021/09/14 01:46:30;;;;;;;41.73;20.85;;;;;;;11.56;100.00;100507.63;1750161;82;20944;-52
2021/09/14 01:48:57;;;;;;;43.25;19.85;;;;;;;11.55;100.00;100503.79;1721757;82;21987;-52
2021/09/14 01:51:25;;;;;;;34.60;19.70;;;;;;;11.54;100.00;100504.67;1749708;82;20975;-52
2021/09/14 01:53:54;;;;;;;38.98;19.17;;;;;;;11.53;100.00;100505.56;1749783;82;20963;-52
2021/09/14 01:56:20;;;;;;;42.50;19.35;;;;;;;11.54;100.00;100505.52;1749740;82;20929;-52
2021/09/14 01:58:47;;;;;;;34.80;18.07;;;;;;;11.63;100.00;100513.11;1749695;82;20967;-52
2021/09/14 02:01:36;;;;;;;36.23;18.15;;;;;;;11.69;100.00;100504.32;1749623;81;20956;-52
2021/09/14 02:03:55;;;;;;;37.10;18.42;;;;;;;11.72;100.00;100505.55;1742390;82;21518;-52
2021/09/14 02:23:40;;;;;;;36.93;19.42;;;;;;;11.74;100.00;100508.95;1750068;82;21530;-52
2021/09/14 02:33:56;;;;;;;42.08;18.27;;;;;;;11.43;100.00;100521.30;1749793;80;20928;-52
2021/09/14 03:00:50;;;;;;;61.68;19.32;;;;;;;11.87;100.00;100530.31;1749915;81;20944;-52
2021/09/14 03:03:17;;;;;;;38.58;18.25;;;;;;;11.88;100.00;100533.73;1749693;82;21007;-52
2021/09/14 03:05:44;;;;;;;36.88;16.00;;;;;;;11.90;100.00;100543.63;1749954;82;20900;-51
2021/09/14 03:08:13;;;;;;;32.10;17.77;;;;;;;11.95;100.00;100552.16;1722981;82;20963;-52
2021/09/14 03:10:40;;;;;;;44.10;19.52;;;;;;;11.97;100.00;100554.27;1746679;81;20932;-52
2021/09/14 03:13:07;;;;;;;40.52;21.07;;;;;;;12.01;100.00;100561.16;1749512;82;20960;-52
2021/09/14 03:15:33;;;;;;;54.88;21.87;;;;;;;12.05;100.00;100567.98;1749628;82;20970;-52
2021/09/14 03:18:01;;;;;;;40.60;20.52;;;;;;;12.11;100.00;100570.02;1749606;82;21012;-51
2021/09/14 03:20:28;;;;;;;39.40;21.62;;;;;;;12.13;100.00;100565.21;1749545;82;21152;-52
2021/09/14 03:22:55;;;;;;;42.65;22.67;;;;;;;12.15;100.00;100569.05;1749527;82;21015;-52
2021/09/14 03:25:25;;;;;;;38.05;22.13;;;;;;;12.16;100.00;100574.65;1749622;82;20969;-52
2021/09/14 03:27:52;;;;;;;37.80;20.72;;;;;;;12.13;100.00;100564.34;1749610;82;20920;-52
2021/09/14 03:30:18;;;;;;;40.48;22.30;;;;;;;12.13;100.00;100577.31;1749814;82;21461;-52
2021/09/14 03:32:45;;;;;;;35.65;20.35;;;;;;;12.10;100.00;100577.39;1749679;82;21195;-52
2021/09/14 03:35:11;;;;;;;42.90;21.82;;;;;;;12.09;100.00;100578.28;1749641;82;21090;-52
2021/09/14 03:37:38;;;;;;;46.33;21.68;;;;;;;12.11;100.00;100579.09;1721937;82;20893;-51
2021/09/14 03:40:08;;;;;;;64.65;24.10;;;;;;;12.10;100.00;100588.61;1749603;82;20952;-52
2021/09/14 03:42:35;;;;;;;62.48;22.90;;;;;;;12.09;100.00;100586.91;1749644;82;21482;-52
2021/09/14 03:45:04;;;;;;;54.50;21.37;;;;;;;12.09;100.00;100588.66;1749586;80;22639;-52
2021/09/14 03:47:32;;;;;;;47.50;20.85;;;;;;;12.07;100.00;100583.06;1746800;81;21022;-52
2021/09/14 03:49:59;;;;;;;39.45;19.12;;;;;;;12.04;100.00;100583.13;1746782;82;20952;-51
2021/09/14 03:52:25;;;;;;;28.75;17.70;;;;;;;12.02;100.00;100584.91;1749584;82;20933;-52
2021/09/14 03:54:52;;;;;;;52.25;18.12;;;;;;;11.99;100.00;100590.11;1749508;81;20925;-52
2021/09/14 03:57:20;;;;;;;36.60;18.05;;;;;;;11.99;100.00;100578.44;1749677;82;20897;-52
2021/09/14 03:59:47;;;;;;;44.42;18.85;;;;;;;12.01;100.00;100588.39;1749867;82;20913;-52
2021/09/14 04:03:00;;;;;;;55.00;20.80;;;;;;;12.02;100.00;100586.64;1749467;82;20928;-52
2021/09/14 04:05:03;;;;;;;49.88;19.92;;;;;;;12.08;100.00;100590.39;1735641;82;20900;-52
2021/09/14 04:07:26;;;;;;;51.98;20.77;;;;;;;12.18;100.00;100600.11;1749317;82;21470;-52
2021/09/14 04:09:50;;;;;;;41.65;18.30;;;;;;;12.27;100.00;100594.73;1748827;82;21201;-52
2021/09/14 04:12:17;;;;;;;50.73;19.67;;;;;;;12.38;100.00;100605.30;1749613;82;20956;-52
2021/09/14 04:14:44;;;;;;;51.08;18.52;;;;;;;12.50;100.00;100604.98;1749491;81;20932;-52
2021/09/14 04:17:11;;;;;;;45.00;19.32;;;;;;;12.63;100.00;100607.71;1749528;81;20976;-52
2021/09/14 04:19:38;;;;;;;48.87;18.77;;;;;;;12.78;100.00;100602.58;1749853;82;20968;-52
2021/09/14 04:22:05;;;;;;;40.60;20.72;;;;;;;12.94;100.00;100602.20;1749572;81;21241;-52
2021/09/14 04:24:34;;;;;;;33.28;17.75;;;;;;;13.12;100.00;100598.69;1749564;82;20955;-52
2021/09/14 04:27:02;;;;;;;40.45;18.40;;;;;;;13.30;100.00;100599.49;1749612;82;20995;-52
2021/09/14 04:29:29;;;;;;;36.48;18.62;;;;;;;13.48;100.00;100599.45;1749907;82;21471;-52
2021/09/14 04:31:56;;;;;;;56.33;20.43;;;;;;;13.65;100.00;100608.10;1749652;82;20877;-53
2021/09/14 04:34:23;;;;;;;47.13;18.82;;;;;;;13.79;100.00;100611.59;1749718;81;21098;-53
2021/09/14 04:36:52;;;;;;;39.78;17.87;;;;;;;13.93;100.00;100618.12;1749734;80;20928;-52
2021/09/14 04:39:19;;;;;;;58.52;18.80;;;;;;;14.01;100.00;100622.64;1750032;81;21518;-52
2021/09/14 04:41:47;;;;;;;35.20;18.35;;;;;;;14.10;100.00;100624.58;1749690;82;20893;-53
2021/09/14 04:44:14;;;;;;;38.95;17.92;;;;;;;14.18;100.00;100627.80;1750158;82;20885;-52
2021/09/14 04:46:40;;;;;;;34.60;18.32;;;;;;;14.24;100.00;100626.30;1750025;82;21841;-52
2021/09/14 04:49:07;;;;;;;41.58;19.05;;;;;;;14.31;100.00;100629.13;1749693;82;21498;-52
2021/09/14 04:51:34;;;;;;;44.60;19.75;;;;;;;14.35;100.00;100630.73;1749899;82;21402;-52
2021/09/14 04:54:01;;;;;;;36.93;18.73;;;;;;;14.42;100.00;100629.23;1749842;82;20972;-52
2021/09/14 04:56:28;;;;;;;38.53;19.85;;;;;;;14.47;100.00;100630.80;1749629;82;21007;-52
2021/09/14 04:58:56;;;;;;;31.87;19.17;;;;;;;14.54;100.00;100632.77;1749633;82;21044;-53
2021/09/14 05:01:23;;;;;;;43.83;18.98;;;;;;;14.59;100.00;100634.77;1749311;80;20999;-52
2021/09/14 05:03:51;;;;;;;29.65;19.23;;;;;;;14.64;99.76;100639.37;1749953;80;21011;-52
2021/09/14 05:06:17;;;;;;;30.75;18.87;;;;;;;14.66;97.29;100642.77;1750496;82;20979;-52
2021/09/14 05:08:44;;;;;;;39.67;18.62;;;;;;;14.71;96.08;100649.61;1749828;82;20928;-52
2021/09/14 05:11:13;;;;;;;34.00;18.27;;;;;;;14.75;95.04;100647.30;1749885;82;20944;-52
2021/09/14 05:13:41;;;;;;;32.67;18.90;;;;;;;14.79;94.62;100639.81;1744022;81;20933;-52
2021/09/14 05:16:08;;;;;;;39.55;18.77;;;;;;;14.85;94.17;100638.30;1735920;82;20838;-52
2021/09/14 05:18:47;;;;;;;;;;;;;;;14.91;93.77;100640.69;1738748;81;20889;-52
2021/09/14 05:21:14;;;;;;;35.13;18.37;;;;;;;15.00;93.60;100641.27;1735882;81;20100;-52
2021/09/14 05:23:41;;;;;;;29.05;19.07;;;;;;;15.06;93.24;100634.56;1735937;82;21780;-52
2021/09/14 05:26:07;;;;;;;26.15;17.95;;;;;;;15.13;93.04;100633.44;1735801;82;21558;-52
2021/09/14 05:28:37;;;;;;;29.48;17.92;;;;;;;15.20;92.68;100640.14;1735789;82;20878;-52
2021/09/14 05:31:06;;;;;;;29.60;18.35;;;;;;;15.27;91.10;100636.00;1735736;82;20905;-52
2021/09/14 05:33:34;;;;;;;26.12;17.75;;;;;;;15.35;91.20;100634.00;1735883;82;21462;-52
2021/09/14 05:36:01;;;;;;;27.20;18.17;;;;;;;15.44;91.29;100638.88;1739537;82;22016;-52
2021/09/14 05:38:29;;;;;;;32.95;17.17;;;;;;;15.51;91.01;100639.04;1739552;81;20953;-53
2021/09/14 05:40:58;;;;;;;28.30;17.00;;;;;;;15.62;91.05;100644.34;1736019;82;20925;-52
2021/09/14 05:43:27;;;;;;;27.73;16.67;;;;;;;15.74;91.07;100643.04;1735713;82;20948;-52
2021/09/14 05:45:55;;;;;;;25.62;16.30;;;;;;;15.86;90.89;100649.09;1735938;81;21520;-52
2021/09/14 05:48:24;;;;;;;27.67;15.93;;;;;;;15.98;90.56;100646.97;1735873;82;21102;-52
2021/09/14 05:50:52;;;;;;;23.92;16.32;;;;;;;16.10;90.11;100643.87;1735773;81;20965;-52
2021/09/14 05:53:19;;;;;;;28.73;15.13;;;;;;;16.23;89.28;100640.33;1735801;82;20976;-52
2021/09/14 05:55:48;;;;;;;28.45;16.05;;;;;;;16.38;88.91;100646.71;1735813;81;20897;-52
2021/09/14 05:58:16;;;;;;;28.62;15.00;;;;;;;16.53;88.37;100650.47;1736087;82;21609;-52
2021/09/14 06:00:43;;;;;;;24.98;15.18;;;;;;;16.74;88.02;100657.05;1735922;82;21919;-52
2021/09/14 06:03:09;;;;;;;18.98;13.62;;;;;;;16.91;86.02;100654.59;1736017;82;21051;-52
2021/09/14 06:05:37;;;;;;;22.90;13.95;;;;;;;17.07;86.11;100657.91;1735614;82;20885;-52
2021/09/14 06:08:05;;;;;;;18.57;13.50;;;;;;;17.29;85.70;100653.04;1735447;82;21494;-52
2021/09/14 06:10:32;;;;;;;21.95;14.03;;;;;;;17.48;84.89;100657.86;1735747;82;20984;-52
2021/09/14 06:13:03;;;;;;;20.32;12.98;;;;;;;17.71;84.11;100662.53;1729630;81;21897;-52
2021/09/14 06:15:30;;;;;;;17.32;12.80;;;;;;;17.89;82.70;100659.53;1735567;82;21636;-52
2021/09/14 06:17:56;;;;;;;17.80;12.05;;;;;;;18.08;82.66;100662.64;1735589;81;21187;-52
2021/09/14 06:20:24;;;;;;;16.50;11.88;;;;;;;18.35;81.95;100669.67;1735690;82;20960;-52
2021/09/14 06:22:50;;;;;;;15.83;10.60;;;;;;;18.62;80.29;100665.33;1739467;82;20905;-52
2021/09/14 06:25:18;;;;;;;16.00;11.30;;;;;;;18.78;79.52;100662.80;1735621;81;21035;-52
2021/09/14 06:27:45;;;;;;;18.73;11.83;;;;;;;18.88;78.94;100664.50;1686242;82;20973;-52
2021/09/14 06:30:13;;;;;;;17.50;12.43;;;;;;;18.99;78.64;100666.62;1735733;82;20937;-52
2021/09/14 06:32:39;;;;;;;20.85;13.70;;;;;;;19.19;78.24;100660.34;1714738;82;21387;-52
2021/09/14 06:35:08;;;;;;;21.90;11.78;;;;;;;19.41;77.86;100660.55;1735815;82;21403;-52
2021/09/14 06:37:36;;;;;;;23.47;11.05;;;;;;;19.64;76.80;100662.42;1736099;81;21143;-52
2021/09/14 06:40:06;;;;;;;21.95;11.12;;;;;;;19.82;76.86;100669.77;1735982;82;20945;-52
2021/09/14 06:42:33;;;;;;;21.93;11.68;;;;;;;19.95;76.24;100669.50;1735667;82;20933;-52
2021/09/14 06:45:01;;;;;;;16.90;11.95;;;;;;;20.01;75.08;100668.81;1735788;82;20901;-52
2021/09/14 06:47:29;;;;;;;19.05;12.15;;;;;;;20.13;75.32;100673.38;1736437;81;21504;-52
2021/09/14 06:49:56;;;;;;;20.08;11.12;;;;;;;20.29;74.87;100668.11;1736158;81;21478;-53
2021/09/14 06:52:22;;;;;;;15.48;10.38;;;;;;;20.49;73.64;100674.89;1735610;82;20886;-53
2021/09/14 06:54:49;;;;;;;19.23;11.50;;;;;;;20.56;72.21;100673.22;1735691;82;20989;-52
2021/09/14 06:57:19;;;;;;;15.90;10.65;;;;;;;20.66;72.91;100679.17;1735713;81;21581;-53
2021/09/14 06:59:44;;;;;;;21.65;10.05;;;;;;;20.79;72.37;100676.72;1735808;81;21016;-53
2021/09/14 07:02:11;;;;;;;19.25;10.40;;;;;;;20.93;71.26;100682.48;1735688;82;21037;-53
2021/09/14 07:04:37;;;;;;;19.52;8.80;;;;;;;21.08;71.51;100680.73;1735715;81;20909;-53
2021/09/14 07:07:05;;;;;;;15.00;8.43;;;;;;;21.26;70.50;100683.22;1735898;81;20885;-53
2021/09/14 07:09:31;;;;;;;11.75;8.10;;;;;;;21.38;68.45;100686.90;1735663;81;20969;-53
2021/09/14 07:11:58;;;;;;;8.83;7.50;;;;;;;21.49;70.03;100683.12;1735780;82;20960;-53
2021/09/14 07:14:24;;;;;;;7.28;6.55;;;;;;;21.69;68.19;100687.68;1735530;82;21316;-54
2021/09/14 07:16:52;;;;;;;12.73;7.17;;;;;;;21.81;67.76;100692.17;1735629;82;20941;-53
2021/09/14 07:19:19;;;;;;;11.68;6.85;;;;;;;21.96;67.96;100692.17;1735672;81;21550;-52
2021/09/14 07:21:47;;;;;;;12.98;7.05;;;;;;;22.17;66.60;100686.48;1735629;82;20977;-52
2021/09/14 07:24:14;;;;;;;7.30;6.60;;;;;;;22.36;64.59;100695.38;1714683;82;21487;-52
2021/09/14 07:26:42;;;;;;;11.97;6.90;;;;;;;22.46;63.00;100694.31;1735728;82;21463;-52
2021/09/14 07:29:09;;;;;;;8.10;6.50;;;;;;;22.50;61.49;100691.87;1735703;82;21504;-53
2021/09/14 07:31:40;;;;;;;7.40;6.67;;;;;;;22.48;62.41;100691.13;1735807;82;20996;-52
2021/09/14 07:34:04;;;;;;;11.65;6.28;;;;;;;22.47;62.46;100689.44;1735744;81;21521;-52
2021/09/14 07:36:31;;;;;;;9.15;5.97;;;;;;;22.57;62.10;100694.47;1735751;82;20973;-52
2021/09/14 07:38:58;;;;;;;8.78;5.62;;;;;;;22.64;59.91;100693.60;1736042;81;21104;-52
2021/09/14 07:41:24;;;;;;;9.65;5.50;;;;;;;22.65;58.58;100692.20;1735709;82;20972;-52
2021/09/14 07:43:51;;;;;;;6.85;5.58;;;;;;;22.71;59.27;100682.18;1735665;82;20987;-53
2021/09/14 07:46:20;;;;;;;11.40;6.30;;;;;;;22.83;58.40;100682.67;1735688;82;21462;-52
2021/09/14 07:48:47;;;;;;;8.48;6.50;;;;;;;22.90;55.69;100676.05;1735776;81;21020;-52
2021/09/14 07:51:13;;;;;;;8.60;5.62;;;;;;;22.86;56.41;100678.99;1735857;82;21904;-52
2021/09/14 07:53:39;;;;;;;7.58;5.65;;;;;;;22.79;56.20;100675.91;1735906;82;21229;-52
2021/09/14 07:56:06;;;;;;;8.68;5.20;;;;;;;22.62;57.35;100681.85;1735839;82;20937;-52
2021/09/14 07:58:32;;;;;;;7.10;5.12;;;;;;;22.58;57.32;100684.30;1735884;82;20930;-52
2021/09/14 08:00:59;;;;;;;10.55;5.15;;;;;;;22.39;56.45;100684.63;1735686;81;21511;-52
2021/09/14 08:03:26;;;;;;;6.08;4.10;;;;;;;22.41;57.81;100685.86;1736063;82;21750;-52
2021/09/14 08:05:52;;;;;;;6.28;3.40;;;;;;;22.34;55.25;100680.95;1735641;82;21270;-52
2021/09/14 08:08:20;;;;;;;11.30;3.60;;;;;;;22.35;54.48;100685.77;1735808;82;20945;-52
2021/09/14 08:10:48;;;;;;;6.67;3.90;;;;;;;22.47;55.50;100682.36;1735622;82;20926;-51
2021/09/14 08:13:16;;;;;;;5.65;3.70;;;;;;;22.62;54.38;100685.81;1736018;82;21003;-52
2021/09/14 08:15:42;;;;;;;9.75;4.03;;;;;;;22.72;52.58;100683.38;1714574;82;21046;-52
2021/09/14 08:18:09;;;;;;;6.08;3.27;;;;;;;22.86;52.23;100680.31;1735738;82;20921;-52
2021/09/14 08:20:35;;;;;;;3.50;3.00;;;;;;;23.03;50.61;100677.85;1714861;82;20929;-52
2021/09/14 08:23:02;;;;;;;6.85;2.85;;;;;;;23.15;49.44;100674.85;1735954;81;21076;-52
2021/09/14 08:25:29;;;;;;;6.55;3.37;;;;;;;23.24;48.99;100676.39;1735964;82;21577;-52
2021/09/14 08:30:20;;;;;;;3.55;2.90;;;;;;;23.47;47.99;100666.53;1790985;79;22302;-52
2021/09/14 08:32:48;;;;;;;5.50;3.08;;;;;;;23.57;47.97;100669.38;1749593;82;20925;-52
2021/09/14 08:35:15;;;;;;;5.10;2.98;;;;;;;23.76;48.59;100664.98;1749526;81;21105;-52
2021/09/14 08:37:41;;;;;;;3.20;2.90;;;;;;;24.04;47.43;100661.21;1749431;82;20960;-52
2021/09/14 08:40:11;;;;;;;7.67;3.17;;;;;;;24.21;45.89;100662.62;1749541;82;20936;-52
2021/09/14 08:42:38;;;;;;;11.85;3.77;;;;;;;24.37;45.80;100654.41;1720359;82;20905;-52
2021/09/14 08:45:07;;;;;;;3.50;2.77;;;;;;;24.60;45.36;100656.31;1749522;82;20929;-52
2021/09/14 08:47:39;;;;;;;9.70;3.58;;;;;;;24.79;44.26;100655.34;1744601;82;21076;-52
2021/09/14 08:50:07;;;;;;;8.40;3.45;;;;;;;24.98;43.85;100646.47;1749324;82;20928;-52
2021/09/14 08:52:34;;;;;;;9.98;4.25;;;;;;;25.23;43.33;100641.42;1749517;82;20929;-52
2021/09/14 08:55:00;;;;;;;7.62;3.10;;;;;;;25.34;44.68;100645.89;1749627;82;20909;-52
2021/09/14 08:57:27;;;;;;;5.78;3.62;;;;;;;25.43;45.00;100649.16;1749568;82;20916;-54
2021/09/14 08:59:57;;;;;;;5.62;2.87;;;;;;;25.49;43.38;100646.05;1749595;82;21157;-52
2021/09/14 09:02:24;;;;;;;10.65;3.40;;;;;;;25.52;42.96;100647.13;1749640;81;21031;-56
2021/09/14 09:05:04;;;;;;;9.53;3.45;;;;;;;25.64;43.30;100645.31;1749734;82;20995;-52
2021/09/14 09:07:34;;;;;;;4.45;2.72;;;;;;;25.81;44.98;100645.29;1749606;82;20936;-52
2021/09/14 09:10:16;;;;;;;4.58;2.90;;;;;;;26.17;43.35;100646.94;1749636;80;21042;-53
2021/09/14 09:12:45;;;;;;;2.85;2.58;;;;;;;26.25;43.21;100651.13;1749530;80;21107;-52
2021/09/14 09:15:33;;;;;;;4.22;2.75;;;;;;;26.44;43.71;100645.63;1749417;82;21038;-53
2021/09/14 09:18:12;;;;;;;4.12;2.92;;;;;;;26.52;41.23;100649.81;1749701;82;20932;-52
2021/09/14 09:20:40;;;;;;;4.17;2.95;;;;;;;26.37;41.77;100646.12;1749537;80;21506;-53
2021/09/14 09:23:13;;;;;;;5.40;3.10;;;;;;;26.28;42.24;100649.55;1749417;82;20865;-52
2021/09/14 09:25:40;;;;;;;5.95;2.92;;;;;;;25.82;40.48;100648.80;1749544;81;21083;-52
2021/09/14 09:28:13;;;;;;;4.22;3.30;;;;;;;25.52;42.73;100645.81;1749731;81;21012;-52
2021/09/14 09:30:42;;;;;;;3.08;2.67;;;;;;;25.67;44.09;100646.89;1749705;80;20861;-52
2021/09/14 09:33:10;;;;;;;8.73;3.10;;;;;;;26.02;42.16;100646.32;1749564;80;20924;-52
2021/09/14 09:35:40;;;;;;;6.78;3.00;;;;;;;26.20;41.72;100646.69;1749797;81;20940;-52
2021/09/14 09:38:07;;;;;;;10.82;2.90;;;;;;;26.52;40.66;100655.12;1749516;82;21205;-54
2021/09/14 09:40:41;;;;;;;5.47;3.62;;;;;;;26.59;40.91;100650.97;1749048;80;20987;-52
2021/09/14 09:43:08;;;;;;;5.17;3.27;;;;;;;26.55;41.42;100645.56;1748962;80;21003;-52
2021/09/14 09:45:47;;;;;;;5.95;3.12;;;;;;;26.62;40.18;100638.77;1749168;82;21027;-52
2021/09/14 09:48:15;;;;;;;8.43;3.47;;;;;;;26.72;40.54;100644.66;1748927;81;21517;-52
2021/09/14 09:50:42;;;;;;;7.22;3.27;;;;;;;26.59;41.23;100648.82;1749321;82;21761;-52
2021/09/14 09:53:10;;;;;;;4.70;2.80;;;;;;;26.57;41.04;100650.26;1749040;82;20992;-53
2021/09/14 09:55:38;;;;;;;5.90;3.05;;;;;;;26.63;41.31;100648.91;1749162;82;20933;-52
2021/09/14 09:58:05;;;;;;;6.45;3.25;;;;;;;26.57;41.67;100646.28;1748907;82;20925;-54
2021/09/14 10:00:37;;;;;;;6.28;2.47;;;;;;;26.77;41.07;100649.08;1720003;82;20916;-53
2021/09/14 10:03:08;;;;;;;5.95;2.95;;;;;;;27.01;39.92;100644.02;1749338;82;21125;-52
2021/09/14 10:05:36;;;;;;;10.45;3.20;;;;;;;27.25;40.57;100645.89;1749174;80;20961;-52
2021/09/14 10:08:09;;;;;;;4.70;3.58;;;;;;;27.16;39.26;100646.70;1748751;81;20979;-52
2021/09/14 10:10:38;;;;;;;3.40;3.00;;;;;;;27.34;39.07;100648.71;1748908;81;21451;-53
2021/09/14 10:13:06;;;;;;;17.65;4.25;;;;;;;27.56;39.89;100633.59;1748808;82;21907;-52
2021/09/14 10:15:42;;;;;;;5.72;3.33;;;;;;;27.68;38.60;100640.49;1749115;82;21107;-53
2021/09/14 10:18:10;;;;;;;11.53;3.58;;;;;;;27.81;39.29;100637.08;1748236;81;20948;-53
2021/09/14 10:20:43;;;;;;;4.60;3.70;;;;;;;27.70;39.62;100640.34;1748862;82;20976;-53
2021/09/14 10:23:34;;;;;;;7.70;3.25;;;;;;;27.53;39.10;100642.19;1749205;80;20850;-52
2021/09/14 10:26:06;;;;;;;4.87;3.42;;;;;;;27.25;37.57;100642.38;1749164;80;20905;-52
2021/09/14 10:28:48;;;;;;;21.07;6.30;;;;;;;26.91;38.32;100643.95;1748774;80;21807;-53
2021/09/14 10:31:24;;;;;;;25.00;6.45;;;;;;;26.65;44.04;100647.83;1735467;82;20941;-53
2021/09/14 10:34:06;;;;;;;78.05;8.50;;;;;;;26.38;45.29;100642.49;1735694;82;20964;-52
2021/09/14 10:36:33;;;;;;;27.40;6.03;;;;;;;26.24;45.39;100646.79;1735702;82;20925;-52
2021/09/14 10:39:00;;;;;;;42.10;6.20;;;;;;;25.90;46.10;100641.06;1735722;82;21029;-52
2021/09/14 10:41:38;;;;;;;42.45;6.20;;;;;;;25.78;46.64;100649.52;1735779;81;21242;-52
2021/09/14 10:44:08;;;;;;;27.37;5.90;;;;;;;25.66;46.90;100647.86;1735502;81;21051;-52
2021/09/14 10:46:33;;;;;;;33.10;6.50;;;;;;;25.41;47.30;100656.39;1714832;82;20995;-52
2021/09/14 10:49:14;;;;;;;49.45;6.90;;;;;;;25.28;47.96;100660.48;1735792;82;21399;-52
2021/09/14 10:51:54;;;;;;;20.17;5.12;;;;;;;25.19;47.17;100652.76;1717104;82;21008;-52
2021/09/14 10:54:21;;;;;;;16.45;4.62;;;;;;;25.13;46.99;100645.77;1736099;82;21147;-52
2021/09/14 10:56:54;;;;;;;29.18;5.37;;;;;;;25.28;46.42;100644.59;1735940;82;21574;-52
2021/09/14 10:59:20;;;;;;;37.00;6.67;;;;;;;25.20;46.43;100643.85;1736243;82;20941;-53
2021/09/14 11:01:47;;;;;;;41.40;5.83;;;;;;;25.09;47.34;100641.17;1714753;82;20929;-53
2021/09/14 11:04:14;;;;;;;34.90;6.75;;;;;;;25.00;48.07;100644.05;1735649;82;21596;-53
2021/09/14 11:06:47;;;;;;;34.03;5.87;;;;;;;25.04;47.87;100643.34;1735824;81;21423;-53
2021/09/14 11:09:14;;;;;;;32.33;5.72;;;;;;;24.96;47.40;100633.34;1735777;82;21408;-53
2021/09/14 11:11:41;;;;;;;85.92;7.53;;;;;;;24.89;47.70;100640.92;1713507;82;20924;-53
2021/09/14 11:14:07;;;;;;;32.98;5.25;;;;;;;24.86;48.46;100638.98;1713462;82;21558;-53
2021/09/14 11:16:36;;;;;;;10.10;4.37;;;;;;;24.94;49.36;100635.26;1735719;82;20913;-52
2021/09/14 11:19:04;;;;;;;34.55;4.85;;;;;;;25.12;48.24;100644.91;1735761;82;20925;-53
2021/09/14 11:21:30;;;;;;;50.70;6.08;;;;;;;25.09;47.53;100635.88;1735923;81;20934;-53
2021/09/14 11:23:58;;;;;;;26.45;4.58;;;;;;;25.00;47.74;100635.28;1735691;82;20925;-54
2021/09/14 11:26:24;;;;;;;26.00;4.80;;;;;;;24.99;47.91;100631.77;1736080;81;20964;-53
2021/09/14 11:28:58;;;;;;;37.05;5.62;;;;;;;25.05;48.46;100629.14;1735942;81;20929;-53
2021/09/14 11:31:29;;;;;;;50.10;6.17;;;;;;;25.27;47.65;100640.72;1735831;82;21071;-53
2021/09/14 11:33:55;;;;;;;40.40;5.62;;;;;;;25.18;48.19;100640.95;1714490;82;20941;-53
2021/09/14 11:36:23;;;;;;;35.78;5.33;;;;;;;25.18;48.86;100640.48;1735811;81;20925;-53
2021/09/14 11:39:00;;;;;;;31.40;5.08;;;;;;;25.24;48.68;100629.87;1735756;82;20983;-52
2021/09/14 11:41:37;;;;;;;26.15;5.25;;;;;;;25.23;47.41;100631.70;1735916;82;21027;-52
2021/09/14 11:44:05;;;;;;;17.60;5.30;;;;;;;24.82;48.92;100631.75;1735669;81;21101;-53
2021/09/14 11:46:32;;;;;;;23.18;4.95;;;;;;;24.42;49.64;100630.27;1735596;82;20926;-53
2021/09/14 11:49:01;;;;;;;27.25;5.90;;;;;;;24.17;50.80;100632.58;1735714;82;20981;-53
2021/09/14 11:51:38;;;;;;;19.82;4.50;;;;;;;24.09;51.86;100635.78;1735603;82;20858;-53
2021/09/14 11:54:11;;;;;;;9.00;4.50;;;;;;;23.97;52.15;100637.48;1739562;81;20944;-53
2021/09/14 11:56:37;;;;;;;20.40;4.67;;;;;;;23.86;52.46;100622.86;1735609;82;21185;-53
2021/09/14 11:59:16;;;;;;;11.48;4.10;;;;;;;24.01;52.34;100628.86;1735744;81;20976;-54
2021/09/14 12:01:43;;;;;;;17.48;4.12;;;;;;;24.17;52.12;100629.94;1735548;81;21415;-52
2021/09/14 12:04:17;;;;;;;53.42;6.80;;;;;;;24.39;51.98;100631.36;1735912;82;20969;-52
2021/09/14 12:06:52;;;;;;;56.28;6.42;;;;;;;24.57;50.84;100621.66;1735342;82;20936;-52
2021/09/14 12:09:21;;;;;;;40.05;5.72;;;;;;;24.54;51.13;100628.05;1735608;82;20898;-53